createdAt,value
2019-04-23T00:01:08.036Z,17.58
2019-04-23T00:06:10.081Z,17.44
2019-04-23T00:11:15.712Z,17.41
2019-04-23T00:16:26.298Z,17.26
2019-04-23T00:31:31.168Z,17.13
2019-04-23T00:36:37.479Z,17.09
2019-04-23T00:46:43.466Z,16.99
2019-04-23T00:51:42.892Z,16.86
2019-04-23T01:01:56.766Z,16.71
2019-04-23T01:06:56.315Z,16.64
2019-04-23T01:12:02.741Z,16.63
2019-04-23T01:16:51.937Z,16.57
2019-04-23T01:21:41.156Z,16.55
2019-04-23T01:27:39.003Z,16.51
2019-04-23T01:32:32.053Z,16.37
2019-04-23T01:37:36.873Z,16.39
2019-04-23T01:42:41.391Z,16.45
2019-04-23T01:47:38.830Z,16.34
2019-04-23T01:52:45.618Z,16.32
2019-04-23T01:57:47.194Z,16.22
2019-04-23T02:02:49.531Z,16.19
2019-04-23T02:07:50.713Z,16.16
2019-04-23T02:12:55.599Z,16.20
2019-04-23T02:17:58.729Z,16.13
2019-04-23T02:23:13.293Z,16.13
2019-04-23T02:28:13.997Z,16.08
2019-04-23T02:33:29.333Z,15.97
2019-04-23T02:38:26.179Z,15.96
2019-04-23T02:48:24.116Z,15.91
2019-04-23T02:58:41.965Z,15.90
2019-04-23T03:03:33.542Z,15.89
2019-04-23T03:08:36.350Z,15.89
2019-04-23T03:13:47.811Z,15.82
2019-04-23T03:24:00.021Z,15.76
2019-04-23T03:29:04.343Z,15.80
2019-04-23T03:35:09.805Z,15.68
2019-04-23T03:39:18.809Z,15.62
2019-04-23T03:44:06.649Z,15.59
2019-04-23T03:54:28.417Z,15.48
2019-04-23T03:59:20.009Z,15.41
2019-04-23T04:09:25.959Z,15.37
2019-04-23T04:24:42.710Z,15.34
2019-04-23T04:29:44.420Z,15.38
2019-04-23T04:39:42.869Z,15.33
2019-04-23T04:44:42.765Z,15.32
2019-04-23T04:54:24.695Z,15.38
2019-04-23T04:59:54.190Z,15.37
2019-04-23T05:19:50.994Z,15.76
2019-04-23T05:24:54.974Z,15.88
2019-04-23T05:30:00.910Z,16.08
2019-04-23T05:34:57.644Z,16.26
2019-04-23T05:40:08.054Z,16.42
2019-04-23T05:50:13.683Z,16.56
2019-04-23T06:00:13.854Z,16.80
2019-04-23T06:05:19.260Z,17.02
2019-04-23T06:10:16.519Z,17.00
2019-04-23T06:15:20.759Z,17.35
2019-04-23T06:20:29.996Z,17.53
2019-04-23T06:30:25.760Z,17.93
2019-04-23T06:35:45.103Z,17.95
2019-04-23T06:40:26.623Z,18.17
2019-04-23T06:45:32.215Z,18.40
2019-04-23T06:50:43.586Z,18.29
2019-04-23T06:55:47.128Z,18.58
2019-04-23T07:00:44.622Z,18.83
2019-04-23T07:06:11.761Z,18.76
2019-04-23T07:11:11.095Z,18.93
2019-04-23T07:16:03.205Z,19.31
2019-04-23T07:21:13.332Z,19.62
2019-04-23T07:26:26.200Z,19.79
2019-04-23T07:31:22.415Z,20.03
2019-04-23T07:36:22.885Z,20.08
2019-04-23T07:41:36.110Z,20.59
2019-04-23T07:46:36.657Z,21.06
2019-04-23T07:51:31.535Z,20.89
2019-04-23T07:56:35.691Z,20.87
2019-04-23T08:01:34.978Z,20.95
2019-04-23T08:06:41.179Z,21.20
2019-04-23T08:11:56.766Z,21.20
2019-04-23T08:16:38.407Z,21.30
2019-04-23T08:21:53.821Z,21.46
2019-04-23T08:27:07.534Z,21.69
2019-04-23T08:32:00.871Z,22.15
2019-04-23T08:37:03.276Z,22.95
2019-04-23T08:47:03.315Z,23.84
2019-04-23T08:52:10.053Z,23.79
2019-04-23T08:57:08.695Z,24.17
2019-04-23T09:02:31.058Z,24.64
2019-04-23T09:07:16.677Z,24.58
2019-04-23T09:12:18.812Z,25.29
2019-04-23T09:22:22.981Z,25.72
2019-04-23T09:27:26.194Z,25.27
2019-04-23T09:37:26.542Z,26.40
2019-04-23T09:42:38.913Z,26.34
2019-04-23T09:48:01.541Z,26.62
2019-04-23T09:58:03.250Z,28.66
2019-04-23T10:02:56.858Z,30.88
2019-04-23T10:07:49.469Z,31.88
2019-04-23T10:12:43.951Z,31.11
2019-04-23T10:17:46.312Z,30.04
2019-04-23T10:22:48.249Z,30.84
2019-04-23T10:27:55.180Z,30.00
2019-04-23T10:32:53.630Z,28.95
2019-04-23T10:38:03.691Z,27.85
2019-04-23T10:42:59.690Z,27.31
2019-04-23T10:49:11.261Z,27.52
2019-04-23T10:53:52.067Z,28.48
2019-04-23T10:58:58.442Z,28.48
2019-04-23T11:04:10.031Z,29.78
2019-04-23T11:09:07.916Z,30.47
2019-04-23T11:14:16.211Z,32.27
2019-04-23T11:19:15.448Z,33.84
2019-04-23T11:24:25.213Z,35.48
2019-04-23T11:29:20.845Z,37.04
2019-04-23T11:39:16.472Z,34.13
2019-04-23T11:44:26.422Z,33.00
2019-04-23T11:54:27.749Z,31.66
2019-04-23T11:59:36.384Z,30.40
2019-04-23T12:04:50.186Z,31.10
2019-04-23T12:14:56.236Z,30.96
2019-04-23T12:20:12.294Z,30.11
2019-04-23T12:30:06.083Z,28.13
2019-04-23T12:40:15.691Z,27.44
2019-04-23T12:50:38.332Z,26.79
2019-04-23T13:00:22.500Z,25.90
2019-04-23T13:05:23.229Z,25.59
2019-04-23T13:10:33.744Z,25.03
2019-04-23T13:15:22.793Z,24.87
2019-04-23T13:20:27.326Z,24.60
2019-04-23T13:25:39.949Z,24.63
2019-04-23T13:35:56.813Z,24.73
2019-04-23T13:40:53.167Z,24.46
2019-04-23T13:51:00.003Z,24.50
2019-04-23T13:55:55.987Z,24.48
2019-04-23T14:01:07.442Z,24.28
2019-04-23T14:06:01.778Z,24.24
2019-04-23T14:11:05.553Z,24.27
2019-04-23T14:16:03.979Z,24.23
2019-04-23T14:21:14.255Z,24.37
2019-04-23T14:26:18.615Z,24.48
2019-04-23T14:31:13.048Z,24.55
2019-04-23T14:36:17.688Z,24.41
2019-04-23T14:46:34.936Z,24.70
2019-04-23T14:56:27.723Z,24.99
2019-04-23T15:01:49.206Z,25.11
2019-04-23T15:06:54.851Z,24.89
2019-04-23T15:11:44.224Z,24.74
2019-04-23T15:31:52.397Z,24.88
2019-04-23T15:41:55.952Z,24.92
2019-04-23T15:47:02.033Z,24.60
2019-04-23T15:51:56.599Z,24.46
2019-04-23T16:01:42.551Z,24.53
2019-04-23T16:06:38.832Z,24.34
2019-04-23T16:11:58.961Z,24.42
2019-04-23T16:22:13.217Z,24.27
2019-04-23T16:27:11.145Z,24.19
2019-04-23T16:32:28.333Z,24.25
2019-04-23T16:37:23.243Z,24.29
2019-04-23T16:42:23.728Z,24.41
2019-04-23T16:47:26.426Z,24.26
2019-04-23T16:52:26.746Z,23.89
2019-04-23T16:57:40.707Z,23.77
2019-04-23T17:02:54.677Z,23.45
2019-04-23T17:07:39.979Z,23.44
2019-04-23T17:12:41.653Z,23.17
2019-04-23T17:17:43.418Z,22.93
2019-04-23T17:27:48.488Z,22.58
2019-04-23T17:33:07.883Z,22.33
2019-04-23T17:38:14.983Z,22.07
2019-04-23T17:43:16.579Z,21.89
2019-04-23T17:48:12.946Z,21.72
2019-04-23T17:53:14.408Z,21.49
2019-04-23T17:58:16.326Z,21.33
2019-04-23T18:03:20.396Z,21.16
2019-04-23T18:08:17.871Z,21.06
2019-04-23T18:13:22.873Z,20.87
2019-04-23T18:18:30.672Z,20.80
2019-04-23T18:23:36.253Z,20.69
2019-04-23T18:28:37.232Z,20.49
2019-04-23T18:43:52.312Z,19.79
2019-04-23T18:48:50.470Z,19.53
2019-04-23T18:54:08.504Z,19.30
2019-04-23T18:59:00.393Z,19.06
2019-04-23T19:04:09.663Z,18.90
2019-04-23T19:14:07.827Z,18.59
2019-04-23T19:19:09.641Z,18.56
2019-04-23T19:24:22.166Z,18.43
2019-04-23T19:29:23.565Z,18.43
2019-04-23T19:34:30.328Z,18.42
2019-04-23T19:39:24.972Z,18.40
2019-04-23T19:44:27.908Z,18.28
2019-04-23T19:49:28.366Z,18.32
2019-04-23T19:59:39.534Z,18.33
2019-04-23T20:04:42.844Z,18.34
2019-04-23T20:09:46.131Z,18.29
2019-04-23T20:14:44.223Z,18.18
2019-04-23T20:19:44.026Z,18.18
2019-04-23T20:35:21.634Z,18.49
2019-04-23T20:40:30.568Z,18.42
2019-04-23T20:45:14.248Z,18.63
2019-04-23T20:50:05.500Z,18.59
2019-04-23T20:55:19.160Z,18.54
2019-04-23T21:00:32.486Z,18.85
2019-04-23T21:05:21.811Z,18.92
2019-04-23T21:20:37.946Z,19.14
2019-04-23T21:30:58.940Z,19.17
2019-04-23T21:41:13.809Z,19.09
2019-04-23T22:01:20.554Z,18.95
2019-04-23T22:06:23.631Z,18.92
2019-04-23T22:26:28.567Z,18.90
2019-04-23T22:36:28.935Z,18.75
2019-04-23T22:41:37.177Z,18.69
2019-04-23T22:46:48.369Z,18.61
2019-04-23T22:51:46.340Z,18.51
2019-04-23T22:56:51.914Z,18.46
2019-04-23T23:02:00.383Z,18.44
2019-04-23T23:06:55.560Z,18.38
2019-04-23T23:16:53.237Z,18.26
2019-04-23T23:27:09.782Z,18.25
2019-04-23T23:32:00.487Z,18.15
2019-04-23T23:37:07.469Z,18.14
2019-04-23T23:42:02.816Z,18.08
2019-04-23T23:47:09.046Z,18.02
2019-04-23T23:52:02.888Z,17.95
